Weather at Taiwan Taoyuan International Airport

Public forecast

Using degrees Celsius for public forecast. Weather courtesy of forecast.io.

Current aviation weather report (METAR) for Taiwan Taoyuan International Airport

Retrieved 2020/12/04 13:30 UTC (0 seconds ago):

RCTP 041330Z 05022G35KT 9999 FEW010 BKN012 BKN020 17/14 Q1022 WS ALL RWY NOSIG RMK A3019

Aviation forecast (TAF) for Taiwan Taoyuan International Airport

Retrieved 2020/12/04 12:00 UTC (1 hour ago):

TAF RCTP 041100Z 0412/0518 04020KT 9999 SCT010 BKN015 BKN040 TEMPO 0412/0416 4000 RA SCT006 BKN011 BKN030 TEMPO 0418/0422 05015G25KT 4000 RA SCT005 BKN008 BKN025 TEMPO 0500/0506 05025KT FEW012 BKN025 BKN050 TEMPO 0510/0516 5000 RA SCT008 BKN011 BKN030